»·PEaware :: N422M KSBA-KRNM

N422M :: KSBA-KRNM

FLIGHT INFORMATION

Flight Status: Arrived
Operator: Privately registered:
United States
More flights under this callsign
Pilot: Ryan L. (28399)
Aircraft: CESSNA 510 CITATION MUSTANG
(C510)
More flights by this aircraft type
Origin: KSBA Santa Barbara Mun
United States
Destination: KRNM Ramona
United States
More flights between these airports :: More routes between these airports
Route: KWANG VTU V208 JLI
File this flight plan on PilotEdge
Remarks: SBAP34 Tec Route
Altitude:
(Current/Filed)
11,000ft
Speed:
(Current/Filed)
300kts
Departed: 25-Sep-20 11:07 AM
Arrived: 25-Sep-20 11:46 AM
Distance/Time
Traveled:
168nm/0:39
Distance/Time
To Go:
Arrived

Flight Plot

Page will automatically refresh every two minutes.

Flight plan parsing failed; only flown route is shown


Map Options




Map Legend


Flown Route
Filed Route
Departure Airport
Arrival Airport
Navaid (VOR, NDB)
Fix

Horizontal Profiles

Position Reports

Time Latitude Longitude Heading Altitude Ground
Speed
25-Sep-20 10:52 34.432562 -119.835113 71 18ft 0kts
25-Sep-20 10:53 34.432562 -119.835113 71 18ft 0kts
25-Sep-20 10:54 34.432562 -119.835113 71 18ft 0kts
25-Sep-20 10:55 34.432562 -119.835113 71 18ft 0kts
25-Sep-20 10:56 34.432562 -119.835113 71 18ft 0kts
25-Sep-20 10:57 34.432562 -119.835113 71 18ft 0kts
25-Sep-20 10:58 34.432562 -119.835113 71 18ft 0kts
25-Sep-20 10:59 34.432562 -119.835113 71 18ft 0kts
25-Sep-20 11:00 34.432562 -119.835113 71 18ft 0kts
25-Sep-20 11:01 34.432562 -119.835113 71 18ft 0kts
25-Sep-20 11:02 34.432562 -119.835113 71 18ft 0kts
25-Sep-20 11:03 34.432562 -119.835113 71 18ft 0kts
25-Sep-20 11:04 34.432562 -119.835113 71 18ft 0kts
25-Sep-20 11:05 34.429425 -119.835275 177 18ft 17kts
25-Sep-20 11:06 34.427863 -119.836673 268 18ft 41kts
25-Sep-20 11:07 34.426011 -119.889453 266 1324ft 240kts
25-Sep-20 11:08 34.421972 -119.975613 266 3279ft 270kts
25-Sep-20 11:09 34.372714 -119.999311 152 5992ft 235kts
25-Sep-20 11:10 34.323639 -119.957028 127 8941ft 212kts
25-Sep-20 11:11 34.283463 -119.891133 126 11008ft 299kts
25-Sep-20 11:12 34.229334 -119.801517 126 10985ft 346kts
25-Sep-20 11:13 34.171814 -119.706774 126 10979ft 345kts
25-Sep-20 11:14 34.116024 -119.615169 126 10982ft 334kts
25-Sep-20 11:15 34.060165 -119.523700 126 10986ft 346kts
25-Sep-20 11:16 34.002347 -119.429252 126 11038ft 352kts
25-Sep-20 11:17 33.944616 -119.335164 126 10991ft 346kts
25-Sep-20 11:19 33.887106 -119.241703 126 10986ft 343kts
25-Sep-20 11:20 33.830311 -119.149627 126 10991ft 344kts
25-Sep-20 11:21 33.773718 -119.058112 126 10989ft 336kts
25-Sep-20 11:22 33.718151 -118.968469 127 10997ft 340kts
25-Sep-20 11:23 33.661409 -118.877168 127 11009ft 346kts
25-Sep-20 11:24 33.604651 -118.786071 127 11028ft 327kts
25-Sep-20 11:25 33.548539 -118.696253 127 11002ft 345kts
25-Sep-20 11:26 33.492012 -118.605973 127 11003ft 342kts
25-Sep-20 11:27 33.434816 -118.514844 127 10999ft 338kts
25-Sep-20 11:28 33.378114 -118.423788 120 10989ft 343kts
25-Sep-20 11:29 33.360874 -118.312482 98 11000ft 348kts
25-Sep-20 11:30 33.346206 -118.199621 98 10987ft 335kts
25-Sep-20 11:31 33.331547 -118.088499 98 11036ft 335kts
25-Sep-20 11:32 33.316964 -117.978926 98 11030ft 340kts
25-Sep-20 11:33 33.301924 -117.866748 98 11009ft 346kts
25-Sep-20 11:34 33.286529 -117.752605 98 10998ft 348kts
25-Sep-20 11:34 33.272315 -117.657625 99 10995ft 345kts
25-Sep-20 11:36 33.254113 -117.527833 97 10993ft 338kts
25-Sep-20 11:36 33.242709 -117.434554 97 10992ft 339kts
25-Sep-20 11:38 33.212971 -117.325137 111 9809ft 260kts
25-Sep-20 11:39 33.186406 -117.244427 111 7823ft 268kts
25-Sep-20 11:39 33.164983 -117.178708 111 6146ft 244kts
25-Sep-20 11:40 33.141723 -117.106584 111 4994ft 219kts
25-Sep-20 11:41 33.118579 -117.034378 111 5006ft 244kts
25-Sep-20 11:42 33.092668 -116.956486 114 4277ft 263kts
25-Sep-20 11:43 33.053990 -116.889331 163 2555ft 213kts
25-Sep-20 11:44 33.039063 -116.914097 281 1400ft 79kts
25-Sep-20 11:45 33.040291 -116.919876 30 1400ft 0kts

Navigation Log

Ident Type
Flight plan parsing failed, navigation log unavailable